createdAt,value
2023-04-28T00:00:04.843Z,100245.16
2023-04-28T00:01:06.796Z,100243.41
2023-04-28T00:02:09.013Z,100242.41
2023-04-28T00:03:11.251Z,100250.69
2023-04-28T00:04:14.004Z,100252.28
2023-04-28T00:05:16.324Z,100249.69
2023-04-28T00:06:18.477Z,100243.72
2023-04-28T00:07:20.622Z,100243.06
2023-04-28T00:08:23.565Z,100242.91
2023-04-28T00:09:25.515Z,100238.22
2023-04-28T00:10:27.416Z,100245.00
2023-04-28T00:11:29.372Z,100238.19
2023-04-28T00:12:31.661Z,100240.91
2023-04-28T00:13:33.540Z,100240.16
2023-04-28T00:14:35.401Z,100243.06
2023-04-28T00:15:37.281Z,100242.41
2023-04-28T00:16:39.404Z,100240.47
2023-04-28T00:17:41.685Z,100237.91
2023-04-28T00:18:43.571Z,100236.44
2023-04-28T00:19:45.797Z,100242.41
2023-04-28T00:20:48.155Z,100238.50
2023-04-28T00:21:49.987Z,100240.44
2023-04-28T00:22:52.204Z,100240.44
2023-04-28T00:23:54.398Z,100239.12
2023-04-28T00:24:56.282Z,100238.03
2023-04-28T00:25:58.121Z,100232.66
2023-04-28T00:26:59.991Z,100241.88
2023-04-28T00:28:02.839Z,100233.34
2023-04-28T00:29:04.808Z,100238.53
2023-04-28T00:30:07.466Z,100232.22
2023-04-28T00:31:14.359Z,100234.00
2023-04-28T00:32:16.348Z,100240.91
2023-04-28T00:33:18.620Z,100233.47
2023-04-28T00:34:20.607Z,100240.72
2023-04-28T00:35:22.849Z,100235.50
2023-04-28T00:36:24.752Z,100235.19
2023-04-28T00:37:26.650Z,100240.34
2023-04-28T00:38:28.946Z,100228.38
2023-04-28T00:39:30.973Z,100228.69
2023-04-28T00:40:37.485Z,100235.53
2023-04-28T00:41:39.411Z,100242.72
2023-04-28T00:42:41.362Z,100233.03
2023-04-28T00:43:47.878Z,100231.22
2023-04-28T00:44:49.845Z,100240.37
2023-04-28T00:45:52.434Z,100234.06
2023-04-28T00:46:54.621Z,100232.47
2023-04-28T00:47:57.089Z,100232.63
2023-04-28T00:48:59.605Z,100232.56
2023-04-28T00:50:02.270Z,100235.09
2023-04-28T00:51:06.457Z,100235.09
2023-04-28T00:52:08.321Z,100231.28
2023-04-28T00:53:11.515Z,100238.09
2023-04-28T00:54:15.042Z,100236.78
2023-04-28T00:55:17.462Z,100234.84
2023-04-28T00:56:19.828Z,100235.41
2023-04-28T00:57:22.622Z,100236.19
2023-04-28T00:58:25.086Z,100226.16
2023-04-28T00:59:27.298Z,100230.09
2023-04-28T01:00:29.216Z,100234.28
2023-04-28T01:01:32.162Z,100241.38
2023-04-28T01:02:35.956Z,100235.59
2023-04-28T01:03:40.895Z,100228.78
2023-04-28T01:04:47.225Z,100233.94
2023-04-28T01:05:49.949Z,100243.53
2023-04-28T01:06:53.719Z,100240.31
2023-04-28T01:07:55.877Z,100235.59
2023-04-28T01:08:57.772Z,100235.78
2023-04-28T01:10:00.343Z,100233.00
2023-04-28T01:11:02.830Z,100237.53
2023-04-28T01:12:07.837Z,100232.00
2023-04-28T01:13:10.260Z,100240.97
2023-04-28T01:14:12.148Z,100238.44
2023-04-28T01:15:17.940Z,100236.06
2023-04-28T01:16:20.184Z,100235.19
2023-04-28T01:17:22.268Z,100241.91
2023-04-28T01:18:25.636Z,100242.06
2023-04-28T01:19:28.331Z,100242.84
2023-04-28T01:20:31.127Z,100240.59
2023-04-28T01:21:34.364Z,100246.19
2023-04-28T01:22:36.738Z,100239.91
2023-04-28T01:23:38.702Z,100245.41
2023-04-28T01:24:41.191Z,100239.75
2023-04-28T01:25:44.530Z,100242.69
2023-04-28T01:26:46.590Z,100243.16
2023-04-28T01:27:48.471Z,100239.41
2023-04-28T01:28:50.647Z,100242.28
2023-04-28T01:29:52.706Z,100248.56
2023-04-28T01:30:56.540Z,100240.44
2023-04-28T01:31:58.667Z,100242.59
2023-04-28T01:33:01.065Z,100247.69
2023-04-28T01:34:03.199Z,100247.69
2023-04-28T01:35:05.394Z,100248.44
2023-04-28T01:36:09.592Z,100250.19
2023-04-28T01:37:12.093Z,100251.31
2023-04-28T01:38:13.964Z,100248.22
2023-04-28T01:39:16.528Z,100250.25
2023-04-28T01:40:18.472Z,100247.69
2023-04-28T01:41:20.726Z,100250.37
2023-04-28T01:42:22.687Z,100243.28
2023-04-28T01:43:24.542Z,100242.34
2023-04-28T01:44:27.211Z,100243.50
2023-04-28T01:45:29.076Z,100249.75
2023-04-28T01:46:31.356Z,100248.69
2023-04-28T01:47:33.425Z,100247.41
2023-04-28T01:48:35.369Z,100244.53
2023-04-28T01:49:37.284Z,100246.47
2023-04-28T01:50:39.259Z,100243.94
2023-04-28T01:51:42.839Z,100237.47
2023-04-28T01:52:45.302Z,100242.28
2023-04-28T01:53:47.173Z,100230.00
2023-04-28T01:54:49.126Z,100236.44
2023-04-28T01:55:51.712Z,100239.66
2023-04-28T01:56:54.170Z,100236.31
2023-04-28T01:57:58.462Z,100237.47
2023-04-28T01:59:01.408Z,100241.06
2023-04-28T02:00:05.145Z,100246.81
2023-04-28T02:01:08.925Z,100247.00
2023-04-28T02:02:12.107Z,100239.44
2023-04-28T02:03:15.015Z,100244.97
2023-04-28T02:04:17.769Z,100235.50
2023-04-28T02:05:19.946Z,100227.09
2023-04-28T02:06:22.777Z,100241.50
2023-04-28T02:07:25.403Z,100237.44
2023-04-28T02:08:27.303Z,100240.00
2023-04-28T02:09:29.205Z,100245.06
2023-04-28T02:10:33.392Z,100239.00
2023-04-28T02:11:35.275Z,100241.50
2023-04-28T02:12:37.424Z,100245.19
2023-04-28T02:13:39.250Z,100241.50
2023-04-28T02:14:41.118Z,100242.00
2023-04-28T02:15:44.175Z,100248.25
2023-04-28T02:16:46.280Z,100253.03
2023-04-28T02:17:48.488Z,100250.41
2023-04-28T02:18:51.066Z,100250.72
2023-04-28T02:19:57.590Z,100248.81
2023-04-28T02:20:59.472Z,100252.88
2023-04-28T02:22:01.352Z,100248.34
2023-04-28T02:23:03.201Z,100249.75
2023-04-28T02:24:05.503Z,100255.91
2023-04-28T02:25:08.644Z,100249.19
2023-04-28T02:26:12.664Z,100252.78
2023-04-28T02:27:14.719Z,100252.16
2023-04-28T02:28:16.576Z,100252.91
2023-04-28T02:29:18.467Z,100250.69
2023-04-28T02:30:20.836Z,100250.37
2023-04-28T02:31:23.626Z,100259.69
2023-04-28T02:32:28.938Z,100252.44
2023-04-28T02:33:31.211Z,100254.16
2023-04-28T02:34:34.024Z,100259.59
2023-04-28T02:35:36.618Z,100254.81
2023-04-28T02:36:39.409Z,100254.72
2023-04-28T02:37:42.313Z,100255.62
2023-04-28T02:38:44.362Z,100256.97
2023-04-28T02:39:46.460Z,100259.59
2023-04-28T02:40:57.288Z,100251.88
2023-04-28T02:41:59.898Z,100250.41
2023-04-28T02:43:02.087Z,100260.09
2023-04-28T02:44:04.164Z,100254.69
2023-04-28T02:45:06.849Z,100254.75
2023-04-28T02:46:09.125Z,100250.00
2023-04-28T02:47:12.146Z,100262.62
2023-04-28T02:48:14.328Z,100249.38
2023-04-28T02:49:16.472Z,100249.88
2023-04-28T02:50:18.616Z,100252.97
2023-04-28T02:51:20.893Z,100252.34
2023-04-28T02:52:23.308Z,100256.88
2023-04-28T02:53:25.190Z,100255.09
2023-04-28T02:54:27.908Z,100258.97
2023-04-28T02:55:30.145Z,100250.63
2023-04-28T02:56:33.048Z,100261.41
2023-04-28T02:57:35.177Z,100257.22
2023-04-28T02:58:37.660Z,100252.41
2023-04-28T02:59:40.193Z,100255.16
2023-04-28T03:00:42.120Z,100248.75
2023-04-28T03:01:44.551Z,100261.47
2023-04-28T03:02:46.683Z,100261.09
2023-04-28T03:03:48.859Z,100252.69
2023-04-28T03:04:51.205Z,100251.91
2023-04-28T03:05:53.627Z,100250.37
2023-04-28T03:06:56.182Z,100251.28
2023-04-28T03:07:58.103Z,100249.06
2023-04-28T03:09:00.200Z,100255.03
2023-04-28T03:10:02.231Z,100253.19
2023-04-28T03:11:05.184Z,100255.25
2023-04-28T03:12:07.432Z,100258.34
2023-04-28T03:13:09.468Z,100265.94
2023-04-28T03:14:11.468Z,100254.78
2023-04-28T03:15:14.184Z,100257.47
2023-04-28T03:16:16.647Z,100252.66
2023-04-28T03:17:18.898Z,100255.09
2023-04-28T03:18:22.542Z,100254.31
2023-04-28T03:19:24.527Z,100258.97
2023-04-28T03:20:27.922Z,100262.81
2023-04-28T03:21:30.408Z,100259.16
2023-04-28T03:22:32.595Z,100262.06
2023-04-28T03:23:34.508Z,100267.75
2023-04-28T03:24:37.357Z,100268.00
2023-04-28T03:25:39.591Z,100267.91
2023-04-28T03:26:41.634Z,100269.88
2023-04-28T03:27:43.940Z,100265.44
2023-04-28T03:28:46.486Z,100266.19
2023-04-28T03:29:49.424Z,100268.41
2023-04-28T03:30:51.301Z,100262.97
2023-04-28T03:31:54.486Z,100263.47
2023-04-28T03:32:56.736Z,100263.66
2023-04-28T03:33:59.650Z,100263.06
2023-04-28T03:35:01.817Z,100264.66
2023-04-28T03:36:04.051Z,100267.59
2023-04-28T03:37:06.018Z,100271.13
2023-04-28T03:38:09.074Z,100263.13
2023-04-28T03:39:11.268Z,100266.06
2023-04-28T03:40:13.371Z,100273.53
2023-04-28T03:41:18.718Z,100271.94
2023-04-28T03:42:25.118Z,100267.56
2023-04-28T03:43:33.201Z,100270.00
2023-04-28T03:44:36.501Z,100270.34
2023-04-28T03:45:39.083Z,100272.00
2023-04-28T03:46:41.093Z,100275.19
2023-04-28T03:47:43.419Z,100276.25
2023-04-28T03:48:46.331Z,100270.09
2023-04-28T03:49:48.508Z,100269.81
2023-04-28T03:50:51.062Z,100280.63
2023-04-28T03:51:53.352Z,100271.25
2023-04-28T03:52:55.825Z,100275.06
2023-04-28T03:53:58.611Z,100275.69
2023-04-28T03:55:00.933Z,100279.12
2023-04-28T03:56:02.846Z,100280.94
2023-04-28T03:57:04.977Z,100281.28
2023-04-28T03:58:07.185Z,100272.84
2023-04-28T03:59:11.777Z,100274.16
2023-04-28T04:00:14.544Z,100278.34
2023-04-28T04:01:17.027Z,100278.00
2023-04-28T04:02:19.299Z,100276.06
2023-04-28T04:03:23.207Z,100276.38
2023-04-28T04:04:25.548Z,100280.25
2023-04-28T04:05:28.456Z,100271.69
2023-04-28T04:06:30.910Z,100281.56
2023-04-28T04:07:33.212Z,100277.81
2023-04-28T04:08:35.375Z,100276.88
2023-04-28T04:09:37.312Z,100275.41
2023-04-28T04:10:39.305Z,100275.94
2023-04-28T04:11:41.457Z,100274.94
2023-04-28T04:12:44.087Z,100281.91
2023-04-28T04:13:46.104Z,100279.00
2023-04-28T04:14:48.821Z,100276.72
2023-04-28T04:15:52.806Z,100281.72
2023-04-28T04:16:55.617Z,100281.19
2023-04-28T04:17:58.505Z,100275.34
2023-04-28T04:19:01.352Z,100277.66
2023-04-28T04:20:03.641Z,100281.69
2023-04-28T04:21:05.604Z,100285.88
2023-04-28T04:22:07.672Z,100281.50
2023-04-28T04:23:10.052Z,100288.97
2023-04-28T04:24:13.154Z,100281.19
2023-04-28T04:25:15.146Z,100291.59
2023-04-28T04:26:17.432Z,100289.00
2023-04-28T04:27:19.417Z,100289.28
2023-04-28T04:28:21.800Z,100292.50
2023-04-28T04:29:23.810Z,100291.91
2023-04-28T04:30:26.505Z,100289.50
2023-04-28T04:31:28.576Z,100289.81
2023-04-28T04:32:31.635Z,100291.91
2023-04-28T04:33:34.721Z,100285.44
2023-04-28T04:34:37.026Z,100285.91
2023-04-28T04:35:39.422Z,100282.53
2023-04-28T04:36:41.370Z,100285.94
2023-04-28T04:37:44.814Z,100285.81
2023-04-28T04:38:47.107Z,100286.44
2023-04-28T04:39:50.261Z,100283.88
2023-04-28T04:40:52.439Z,100284.19
2023-04-28T04:41:54.420Z,100290.03
2023-04-28T04:42:58.106Z,100283.22
2023-04-28T04:44:01.654Z,100289.69
2023-04-28T04:45:04.159Z,100289.03
2023-04-28T04:46:06.573Z,100280.78
2023-04-28T04:47:08.829Z,100285.47
2023-04-28T04:48:11.478Z,100282.88
2023-04-28T04:49:13.781Z,100280.94
2023-04-28T04:50:16.032Z,100289.19
2023-04-28T04:51:18.428Z,100285.16
2023-04-28T04:52:20.369Z,100289.97
2023-04-28T04:53:22.299Z,100283.78
2023-04-28T04:54:24.492Z,100291.37
2023-04-28T04:55:26.953Z,100282.81
2023-04-28T04:56:29.121Z,100287.63
2023-04-28T04:57:31.019Z,100284.66
2023-04-28T04:58:33.724Z,100282.34
2023-04-28T04:59:37.523Z,100284.87
2023-04-28T05:00:40.862Z,100282.81
2023-04-28T05:01:43.576Z,100280.78
2023-04-28T05:02:45.760Z,100281.72
2023-04-28T05:03:48.698Z,100289.81
2023-04-28T05:04:51.162Z,100293.56
2023-04-28T05:05:54.759Z,100291.00
2023-04-28T05:07:00.340Z,100283.88
2023-04-28T05:08:02.848Z,100282.75
2023-04-28T05:09:04.760Z,100285.34
2023-04-28T05:10:08.604Z,100280.53
2023-04-28T05:11:10.635Z,100286.38
2023-04-28T05:12:13.457Z,100288.44
2023-04-28T05:13:15.394Z,100288.50
2023-04-28T05:14:18.079Z,100285.25
2023-04-28T05:15:20.780Z,100281.75
2023-04-28T05:16:24.813Z,100283.25
2023-04-28T05:17:28.134Z,100286.97
2023-04-28T05:18:31.072Z,100291.16
2023-04-28T05:19:33.069Z,100284.25
2023-04-28T05:20:35.550Z,100293.88
2023-04-28T05:21:37.563Z,100293.94
2023-04-28T05:22:39.663Z,100293.91
2023-04-28T05:23:41.684Z,100290.34
2023-04-28T05:24:43.855Z,100291.69
2023-04-28T05:25:46.404Z,100292.84
2023-04-28T05:26:48.327Z,100298.84
2023-04-28T05:27:50.287Z,100297.41
2023-04-28T05:28:52.614Z,100302.00
2023-04-28T05:29:54.625Z,100301.06
2023-04-28T05:30:57.177Z,100301.16
2023-04-28T05:31:59.193Z,100305.06
2023-04-28T05:33:01.147Z,100307.50
2023-04-28T05:34:03.336Z,100297.97
2023-04-28T05:35:05.558Z,100300.44
2023-04-28T05:36:08.490Z,100300.94
2023-04-28T05:37:10.676Z,100303.16
2023-04-28T05:38:13.148Z,100304.13
2023-04-28T05:39:17.031Z,100307.34
2023-04-28T05:40:19.236Z,100307.41
2023-04-28T05:41:21.646Z,100313.06
2023-04-28T05:42:23.757Z,100317.66
2023-04-28T05:43:25.794Z,100317.78
2023-04-28T05:44:28.497Z,100308.16
2023-04-28T05:45:30.659Z,100310.75
2023-04-28T05:46:33.438Z,100313.62
2023-04-28T05:47:35.743Z,100318.47
2023-04-28T05:48:37.853Z,100309.62
2023-04-28T05:49:39.922Z,100315.63
2023-04-28T05:50:42.250Z,100314.84
2023-04-28T05:51:45.111Z,100311.22
2023-04-28T05:52:46.971Z,100308.37
2023-04-28T05:53:49.123Z,100308.19
2023-04-28T05:54:50.976Z,100310.59
2023-04-28T05:55:53.185Z,100309.22
2023-04-28T05:56:55.701Z,100307.41
2023-04-28T05:57:59.868Z,100308.41
2023-04-28T05:59:04.348Z,100315.84
2023-04-28T06:00:07.178Z,100313.44
2023-04-28T06:01:14.301Z,100309.81
2023-04-28T06:02:16.968Z,100299.72
2023-04-28T06:03:19.442Z,100302.75
2023-04-28T06:04:22.468Z,100304.72
2023-04-28T06:05:26.098Z,100302.75
2023-04-28T06:06:29.036Z,100306.94
2023-04-28T06:07:31.334Z,100299.47
2023-04-28T06:08:33.288Z,100308.72
2023-04-28T06:09:35.210Z,100306.75
2023-04-28T06:10:37.171Z,100302.94
2023-04-28T06:11:39.128Z,100303.12
2023-04-28T06:12:41.349Z,100306.19
2023-04-28T06:13:43.244Z,100304.34
2023-04-28T06:14:45.162Z,100303.38
2023-04-28T06:15:47.158Z,100301.13
2023-04-28T06:16:49.453Z,100308.78
2023-04-28T06:17:52.853Z,100308.16
2023-04-28T06:18:54.855Z,100312.78
2023-04-28T06:19:59.017Z,100311.97
2023-04-28T06:21:01.361Z,100305.97
2023-04-28T06:22:03.333Z,100304.31
2023-04-28T06:23:06.729Z,100308.16
2023-04-28T06:24:08.645Z,100301.66
2023-04-28T06:25:11.364Z,100291.72
2023-04-28T06:26:15.210Z,100288.91
2023-04-28T06:27:18.739Z,100302.63
2023-04-28T06:28:21.056Z,100296.72
2023-04-28T06:29:24.100Z,100297.50
2023-04-28T06:30:26.261Z,100301.72
2023-04-28T06:31:29.819Z,100301.91
2023-04-28T06:32:31.808Z,100305.97
2023-04-28T06:33:34.012Z,100300.06
2023-04-28T06:34:35.884Z,100296.25
2023-04-28T06:35:39.119Z,100306.16
2023-04-28T06:36:41.039Z,100307.94
2023-04-28T06:37:43.146Z,100302.16
2023-04-28T06:38:46.109Z,100302.50
2023-04-28T06:39:48.069Z,100306.66
2023-04-28T06:40:51.539Z,100314.09
2023-04-28T06:41:53.639Z,100312.94
2023-04-28T06:42:57.161Z,100313.69
2023-04-28T06:43:59.491Z,100316.69
2023-04-28T06:45:02.443Z,100315.56
2023-04-28T06:46:04.628Z,100312.38
2023-04-28T06:47:06.853Z,100316.94
2023-04-28T06:48:09.011Z,100320.31
2023-04-28T06:49:13.017Z,100316.16
2023-04-28T06:50:14.904Z,100317.09
2023-04-28T06:51:16.809Z,100315.94
2023-04-28T06:52:20.068Z,100313.38
2023-04-28T06:53:24.889Z,100315.19
2023-04-28T06:54:27.203Z,100312.13
2023-04-28T06:55:29.243Z,100315.78
2023-04-28T06:56:32.254Z,100316.00
2023-04-28T06:57:34.237Z,100320.81
2023-04-28T06:58:37.054Z,100319.66
2023-04-28T06:59:39.459Z,100321.38
2023-04-28T07:00:41.516Z,100316.44
2023-04-28T07:01:43.487Z,100324.09
2023-04-28T07:02:45.477Z,100315.53
2023-04-28T07:03:48.056Z,100316.22
2023-04-28T07:04:50.607Z,100317.06
2023-04-28T07:05:52.546Z,100318.31
2023-04-28T07:06:54.552Z,100316.66
2023-04-28T07:07:56.599Z,100306.38
2023-04-28T07:08:58.469Z,100310.53
2023-04-28T07:10:01.282Z,100310.50
2023-04-28T07:11:04.720Z,100307.19
2023-04-28T07:12:07.167Z,100309.34
2023-04-28T07:13:09.131Z,100307.56
2023-04-28T07:14:11.016Z,100311.47
2023-04-28T07:15:13.270Z,100311.81
2023-04-28T07:16:15.563Z,100305.97
2023-04-28T07:17:17.538Z,100314.09
2023-04-28T07:18:19.707Z,100310.38
2023-04-28T07:19:21.608Z,100309.81
2023-04-28T07:20:23.898Z,100308.13
2023-04-28T07:21:26.001Z,100309.19
2023-04-28T07:22:27.866Z,100309.16
2023-04-28T07:23:29.797Z,100304.72
2023-04-28T07:24:31.655Z,100299.88
2023-04-28T07:25:33.805Z,100301.63
2023-04-28T07:26:35.973Z,100290.84
2023-04-28T07:27:37.852Z,100297.72
2023-04-28T07:28:39.836Z,100297.59
2023-04-28T07:29:42.160Z,100295.47
2023-04-28T07:30:44.317Z,100294.63
2023-04-28T07:31:46.312Z,100293.78
2023-04-28T07:32:48.589Z,100299.72
2023-04-28T07:33:50.589Z,100297.78
2023-04-28T07:34:52.451Z,100298.41
2023-04-28T07:35:54.865Z,100296.66
2023-04-28T07:36:58.335Z,100297.03
2023-04-28T07:38:00.313Z,100295.81
2023-04-28T07:39:02.199Z,100297.94
2023-04-28T07:40:05.055Z,100296.09
2023-04-28T07:41:08.821Z,100290.50
2023-04-28T07:42:12.940Z,100290.75
2023-04-28T07:43:14.978Z,100290.41
2023-04-28T07:44:17.046Z,100285.63
2023-04-28T07:45:19.153Z,100289.38
2023-04-28T07:46:21.409Z,100291.69
2023-04-28T07:47:23.968Z,100287.38
2023-04-28T07:48:27.312Z,100288.28
2023-04-28T07:49:29.686Z,100285.34
2023-04-28T07:50:31.566Z,100294.97
2023-04-28T07:51:33.882Z,100295.66
2023-04-28T07:52:35.815Z,100298.75
2023-04-28T07:53:37.844Z,100293.81
2023-04-28T07:54:39.833Z,100294.06
2023-04-28T07:55:45.927Z,100289.25
2023-04-28T07:56:48.297Z,100287.41
2023-04-28T07:57:50.173Z,100290.41
2023-04-28T07:58:52.798Z,100293.16
2023-04-28T07:59:54.780Z,100290.19
2023-04-28T08:00:56.763Z,100288.16
2023-04-28T08:01:58.945Z,100289.66
2023-04-28T08:03:00.911Z,100286.00
2023-04-28T08:04:03.065Z,100286.94
2023-04-28T08:05:07.128Z,100288.25
2023-04-28T08:06:09.322Z,100288.37
2023-04-28T08:07:11.969Z,100285.03
2023-04-28T08:08:13.825Z,100277.56
2023-04-28T08:09:15.757Z,100281.03
2023-04-28T08:10:17.641Z,100272.91
2023-04-28T08:11:19.502Z,100275.63
2023-04-28T08:12:22.053Z,100275.16
2023-04-28T08:13:24.302Z,100274.16
2023-04-28T08:14:26.264Z,100267.66
2023-04-28T08:15:28.205Z,100275.19
2023-04-28T08:16:31.378Z,100265.38
2023-04-28T08:17:33.615Z,100270.84
2023-04-28T08:18:35.720Z,100267.75
2023-04-28T08:19:37.648Z,100256.03
2023-04-28T08:20:39.499Z,100266.41
2023-04-28T08:21:41.402Z,100262.78
2023-04-28T08:22:43.671Z,100261.94
2023-04-28T08:23:46.618Z,100259.94
2023-04-28T08:24:48.538Z,100256.59
2023-04-28T08:25:50.462Z,100258.97
2023-04-28T08:26:52.383Z,100250.09
2023-04-28T08:27:57.187Z,100248.47
2023-04-28T08:28:59.374Z,100248.53
2023-04-28T08:30:01.290Z,100244.69
2023-04-28T08:31:03.308Z,100239.59
2023-04-28T08:32:06.610Z,100247.19
2023-04-28T08:33:08.934Z,100239.12
2023-04-28T08:34:10.901Z,100246.84
2023-04-28T08:35:12.926Z,100240.69
2023-04-28T08:36:15.207Z,100247.81
2023-04-28T08:37:17.364Z,100246.53
2023-04-28T08:38:20.462Z,100242.34
2023-04-28T08:39:23.806Z,100236.31
2023-04-28T08:40:26.993Z,100242.72
2023-04-28T08:41:32.633Z,100243.97
2023-04-28T08:42:35.267Z,100243.59
2023-04-28T08:43:40.569Z,100243.03
2023-04-28T08:44:42.590Z,100232.00
2023-04-28T08:45:45.315Z,100236.19
2023-04-28T08:46:50.081Z,100234.81
2023-04-28T08:47:54.329Z,100234.34
2023-04-28T08:49:01.320Z,100229.38
2023-04-28T08:50:05.386Z,100232.09
2023-04-28T08:51:07.668Z,100232.06
2023-04-28T08:52:16.841Z,100234.91
2023-04-28T08:53:25.214Z,100241.75
2023-04-28T08:54:31.927Z,100239.16
2023-04-28T08:55:35.829Z,100239.03
2023-04-28T08:56:39.025Z,100235.75
2023-04-28T08:57:42.269Z,100236.31
2023-04-28T08:58:44.205Z,100238.41
2023-04-28T08:59:47.116Z,100236.78
2023-04-28T09:00:49.188Z,100238.50
2023-04-28T09:01:51.413Z,100239.50
2023-04-28T09:02:53.503Z,100231.97
2023-04-28T09:03:56.871Z,100228.44
2023-04-28T09:04:59.453Z,100225.38
2023-04-28T09:06:02.487Z,100221.28
2023-04-28T09:07:04.404Z,100223.72
2023-04-28T09:08:06.354Z,100218.28
2023-04-28T09:09:28.375Z,100227.44
2023-04-28T09:10:31.225Z,100233.44
2023-04-28T09:11:33.217Z,100223.25
2023-04-28T09:12:38.487Z,100222.75
2023-04-28T09:13:41.776Z,100221.34
2023-04-28T09:14:43.690Z,100222.56
2023-04-28T09:15:45.995Z,100216.97
2023-04-28T09:16:48.107Z,100223.66
2023-04-28T09:17:51.046Z,100217.16
2023-04-28T09:18:57.873Z,100219.47
2023-04-28T09:20:00.157Z,100215.19
2023-04-28T09:21:06.268Z,100219.16
2023-04-28T09:22:24.667Z,100221.22
2023-04-28T09:23:27.890Z,100218.06
2023-04-28T09:24:34.093Z,100215.31
2023-04-28T09:25:36.004Z,100214.53
2023-04-28T09:26:55.348Z,100219.00
2023-04-28T09:27:57.506Z,100221.31
2023-04-28T09:29:14.747Z,100218.66
2023-04-28T09:30:16.742Z,100217.31
2023-04-28T09:31:28.133Z,100218.75
2023-04-28T09:32:31.010Z,100216.66
2023-04-28T09:33:33.112Z,100214.47
2023-04-28T09:34:46.413Z,100220.22
2023-04-28T09:35:48.739Z,100209.06
2023-04-28T09:36:50.707Z,100216.75
2023-04-28T09:37:58.924Z,100215.69
2023-04-28T09:39:01.753Z,100216.97
2023-04-28T09:40:06.912Z,100211.25
2023-04-28T09:41:09.494Z,100214.53
2023-04-28T09:42:11.466Z,100217.97
2023-04-28T09:43:28.426Z,100214.38
2023-04-28T09:44:30.358Z,100213.78
2023-04-28T09:45:42.554Z,100210.19
2023-04-28T09:46:45.863Z,100203.91
2023-04-28T09:47:48.256Z,100205.59
2023-04-28T09:49:01.869Z,100199.00
2023-04-28T09:50:06.585Z,100203.50
2023-04-28T09:51:09.536Z,100198.16
2023-04-28T09:52:13.823Z,100203.16
2023-04-28T09:53:17.890Z,100207.72
2023-04-28T09:54:22.804Z,100210.25
2023-04-28T09:55:25.344Z,100200.78
2023-04-28T09:56:31.928Z,100195.16
2023-04-28T09:57:35.775Z,100200.06
2023-04-28T09:58:40.843Z,100197.25
2023-04-28T09:59:47.136Z,100199.19
2023-04-28T10:00:56.965Z,100191.50
2023-04-28T10:02:00.920Z,100185.00
2023-04-28T10:03:09.653Z,100189.37
2023-04-28T10:04:13.124Z,100186.75
2023-04-28T10:05:17.207Z,100187.41
2023-04-28T10:06:20.103Z,100188.00
2023-04-28T10:07:22.283Z,100187.75
2023-04-28T10:08:25.259Z,100178.53
2023-04-28T10:09:28.926Z,100180.41
2023-04-28T10:10:31.547Z,100178.81
2023-04-28T10:11:34.693Z,100189.34
2023-04-28T10:12:38.704Z,100182.47
2023-04-28T10:13:42.392Z,100183.66
2023-04-28T10:14:45.872Z,100184.03
2023-04-28T10:15:49.585Z,100171.75
2023-04-28T10:16:54.592Z,100180.25
2023-04-28T10:17:57.738Z,100177.66
2023-04-28T10:19:02.087Z,100180.38
2023-04-28T10:20:05.471Z,100175.47
2023-04-28T10:21:09.474Z,100177.88
2023-04-28T10:22:32.426Z,100161.00
2023-04-28T10:24:10.054Z,100167.41
2023-04-28T10:25:12.052Z,100168.94
2023-04-28T10:26:18.345Z,100165.75
2023-04-28T10:27:20.757Z,100165.66
2023-04-28T10:28:23.357Z,100169.09
2023-04-28T10:29:26.381Z,100164.16
2023-04-28T10:30:31.312Z,100158.38
2023-04-28T10:31:35.103Z,100154.81
2023-04-28T10:32:37.171Z,100160.25
2023-04-28T10:33:39.975Z,100157.72
2023-04-28T10:34:42.171Z,100153.66
2023-04-28T10:35:47.910Z,100156.06
2023-04-28T10:36:53.031Z,100143.44
2023-04-28T10:38:17.711Z,100149.19
2023-04-28T10:39:20.037Z,100135.50
2023-04-28T10:40:38.816Z,100135.09
2023-04-28T10:41:41.759Z,100131.81
2023-04-28T10:42:56.837Z,100138.28
2023-04-28T10:43:58.786Z,100125.59
2023-04-28T10:45:00.673Z,100123.19
2023-04-28T10:46:06.334Z,100123.59
2023-04-28T10:47:10.091Z,100109.62
2023-04-28T10:48:11.995Z,100124.19
2023-04-28T10:49:13.921Z,100119.75
2023-04-28T10:50:15.834Z,100116.06
2023-04-28T10:51:17.988Z,100104.22
2023-04-28T10:52:38.505Z,100117.22
2023-04-28T10:53:47.226Z,100116.41
2023-04-28T10:55:27.412Z,100118.13
2023-04-28T10:56:29.750Z,100115.56
2023-04-28T10:57:31.762Z,100114.38
2023-04-28T10:58:33.822Z,100107.31
2023-04-28T10:59:35.703Z,100111.13
2023-04-28T11:00:38.658Z,100114.13
2023-04-28T11:01:42.478Z,100098.78
2023-04-28T11:02:47.148Z,100091.53
2023-04-28T11:04:07.704Z,100091.34
2023-04-28T11:05:14.177Z,100091.94
2023-04-28T11:06:25.716Z,100088.03
2023-04-28T11:07:27.832Z,100092.84
2023-04-28T11:08:33.370Z,100082.09
2023-04-28T11:09:35.311Z,100092.63
2023-04-28T11:11:26.000Z,100085.25
2023-04-28T11:12:28.334Z,100090.69
2023-04-28T11:13:34.444Z,100082.66
2023-04-28T11:14:38.131Z,100072.69
2023-04-28T11:15:40.338Z,100080.41
2023-04-28T11:16:50.567Z,100085.94
2023-04-28T11:17:57.510Z,100079.22
2023-04-28T11:19:05.298Z,100078.22
2023-04-28T11:20:09.443Z,100074.41
2023-04-28T11:21:11.615Z,100075.84
2023-04-28T11:22:19.417Z,100078.44
2023-04-28T11:23:21.755Z,100085.66
2023-04-28T11:24:28.937Z,100079.75
2023-04-28T11:25:53.705Z,100077.44
2023-04-28T11:26:56.522Z,100085.78
2023-04-28T11:28:04.824Z,100072.94
2023-04-28T11:29:07.154Z,100079.88
2023-04-28T11:30:30.148Z,100078.53
2023-04-28T11:31:32.246Z,100081.97
2023-04-28T11:32:35.519Z,100078.78
2023-04-28T11:33:38.556Z,100079.88
2023-04-28T11:34:41.132Z,100072.94
2023-04-28T11:35:43.911Z,100081.22
2023-04-28T11:36:46.176Z,100076.56
2023-04-28T11:38:04.095Z,100074.53
2023-04-28T11:39:08.206Z,100074.03
2023-04-28T11:40:12.955Z,100075.78
2023-04-28T11:41:14.875Z,100076.81
2023-04-28T11:42:17.342Z,100083.00
2023-04-28T11:43:40.219Z,100079.16
2023-04-28T11:44:53.563Z,100071.59
2023-04-28T11:45:56.354Z,100079.56
2023-04-28T11:47:01.036Z,100077.56
2023-04-28T11:48:20.964Z,100076.16
2023-04-28T11:49:46.500Z,100074.28
2023-04-28T11:50:48.789Z,100077.91
2023-04-28T11:51:52.557Z,100073.50
2023-04-28T11:52:54.454Z,100080.56
2023-04-28T11:53:56.402Z,100081.97
2023-04-28T11:55:01.049Z,100078.59
2023-04-28T11:56:09.878Z,100077.97
2023-04-28T11:57:19.864Z,100073.88
2023-04-28T11:58:23.792Z,100071.88
2023-04-28T11:59:31.724Z,100071.69
2023-04-28T12:00:33.906Z,100070.28
2023-04-28T12:01:46.687Z,100072.53
2023-04-28T12:02:48.865Z,100067.31
2023-04-28T12:03:51.470Z,100064.41
2023-04-28T12:04:53.528Z,100061.59